sensor_id;sensor_type;location;lat;lon;timestamp;temperature;humidity
22633;DHT22;11483;55.828;37.488;2023-04-15T00:00:10;1.80;52.00
22633;DHT22;11483;55.828;37.488;2023-04-15T00:02:36;1.80;52.10
22633;DHT22;11483;55.828;37.488;2023-04-15T00:05:04;1.80;52.00
22633;DHT22;11483;55.828;37.488;2023-04-15T00:07:30;1.70;52.20
22633;DHT22;11483;55.828;37.488;2023-04-15T00:09:56;1.70;52.30
22633;DHT22;11483;55.828;37.488;2023-04-15T00:12:27;1.70;52.30
22633;DHT22;11483;55.828;37.488;2023-04-15T00:14:53;1.60;52.40
22633;DHT22;11483;55.828;37.488;2023-04-15T00:17:19;1.60;52.50
22633;DHT22;11483;55.828;37.488;2023-04-15T00:19:45;1.60;52.70
22633;DHT22;11483;55.828;37.488;2023-04-15T00:22:11;1.60;52.50
22633;DHT22;11483;55.828;37.488;2023-04-15T00:24:38;1.50;52.70
22633;DHT22;11483;55.828;37.488;2023-04-15T00:27:04;1.50;53.00
22633;DHT22;11483;55.828;37.488;2023-04-15T00:29:30;1.50;53.10
22633;DHT22;11483;55.828;37.488;2023-04-15T00:31:56;1.40;53.00
22633;DHT22;11483;55.828;37.488;2023-04-15T00:34:22;1.40;53.00
22633;DHT22;11483;55.828;37.488;2023-04-15T00:36:48;1.30;53.20
22633;DHT22;11483;55.828;37.488;2023-04-15T00:39:14;1.30;53.10
22633;DHT22;11483;55.828;37.488;2023-04-15T00:41:41;1.30;53.30
22633;DHT22;11483;55.828;37.488;2023-04-15T00:44:07;1.30;53.20
22633;DHT22;11483;55.828;37.488;2023-04-15T00:46:34;1.20;53.60
22633;DHT22;11483;55.828;37.488;2023-04-15T00:49:01;1.20;53.50
22633;DHT22;11483;55.828;37.488;2023-04-15T00:51:28;1.20;53.50
22633;DHT22;11483;55.828;37.488;2023-04-15T00:53:53;1.20;53.50
22633;DHT22;11483;55.828;37.488;2023-04-15T00:56:19;1.10;53.70
22633;DHT22;11483;55.828;37.488;2023-04-15T00:58:49;1.10;53.90
22633;DHT22;11483;55.828;37.488;2023-04-15T01:01:17;1.10;53.90
22633;DHT22;11483;55.828;37.488;2023-04-15T01:03:45;1.10;53.70
22633;DHT22;11483;55.828;37.488;2023-04-15T01:06:11;1.00;53.90
22633;DHT22;11483;55.828;37.488;2023-04-15T01:08:38;1.00;53.80
22633;DHT22;11483;55.828;37.488;2023-04-15T01:11:04;1.00;53.90
22633;DHT22;11483;55.828;37.488;2023-04-15T01:13:29;1.00;53.90
22633;DHT22;11483;55.828;37.488;2023-04-15T01:15:55;0.90;53.90
22633;DHT22;11483;55.828;37.488;2023-04-15T01:18:22;0.90;54.00
22633;DHT22;11483;55.828;37.488;2023-04-15T01:20:48;0.90;54.20
22633;DHT22;11483;55.828;37.488;2023-04-15T01:23:14;0.90;53.90
22633;DHT22;11483;55.828;37.488;2023-04-15T01:25:41;0.80;54.20
22633;DHT22;11483;55.828;37.488;2023-04-15T01:28:08;0.80;54.20
22633;DHT22;11483;55.828;37.488;2023-04-15T01:30:34;0.80;54.20
22633;DHT22;11483;55.828;37.488;2023-04-15T01:32:59;0.70;54.30
22633;DHT22;11483;55.828;37.488;2023-04-15T01:35:44;0.70;54.30
22633;DHT22;11483;55.828;37.488;2023-04-15T01:38:10;0.70;54.30
22633;DHT22;11483;55.828;37.488;2023-04-15T01:40:36;0.70;54.20
22633;DHT22;11483;55.828;37.488;2023-04-15T01:43:04;0.70;54.30
22633;DHT22;11483;55.828;37.488;2023-04-15T01:45:31;0.70;54.40
22633;DHT22;11483;55.828;37.488;2023-04-15T01:47:58;0.60;54.50
22633;DHT22;11483;55.828;37.488;2023-04-15T01:50:24;0.60;54.40
22633;DHT22;11483;55.828;37.488;2023-04-15T01:52:52;0.60;54.50
22633;DHT22;11483;55.828;37.488;2023-04-15T01:55:19;0.60;54.20
22633;DHT22;11483;55.828;37.488;2023-04-15T01:57:46;0.60;54.70
22633;DHT22;11483;55.828;37.488;2023-04-15T02:00:13;0.60;54.50
22633;DHT22;11483;55.828;37.488;2023-04-15T02:02:40;0.60;54.50
22633;DHT22;11483;55.828;37.488;2023-04-15T02:05:07;0.60;54.60
22633;DHT22;11483;55.828;37.488;2023-04-15T02:07:35;0.50;54.70
22633;DHT22;11483;55.828;37.488;2023-04-15T02:10:02;0.50;55.00
22633;DHT22;11483;55.828;37.488;2023-04-15T02:12:29;0.50;55.00
22633;DHT22;11483;55.828;37.488;2023-04-15T02:14:56;0.50;54.80
22633;DHT22;11483;55.828;37.488;2023-04-15T02:17:23;0.50;54.90
22633;DHT22;11483;55.828;37.488;2023-04-15T02:19:50;0.50;55.00
22633;DHT22;11483;55.828;37.488;2023-04-15T02:22:17;0.50;54.80
22633;DHT22;11483;55.828;37.488;2023-04-15T02:24:44;0.50;55.00
22633;DHT22;11483;55.828;37.488;2023-04-15T02:27:15;0.50;54.90
22633;DHT22;11483;55.828;37.488;2023-04-15T02:29:44;0.40;55.20
22633;DHT22;11483;55.828;37.488;2023-04-15T02:32:11;0.50;55.30
22633;DHT22;11483;55.828;37.488;2023-04-15T02:34:39;0.40;55.20
22633;DHT22;11483;55.828;37.488;2023-04-15T02:37:09;0.50;55.20
22633;DHT22;11483;55.828;37.488;2023-04-15T02:39:37;0.50;55.40
22633;DHT22;11483;55.828;37.488;2023-04-15T02:42:04;0.40;55.20
22633;DHT22;11483;55.828;37.488;2023-04-15T02:44:34;0.40;55.20
22633;DHT22;11483;55.828;37.488;2023-04-15T02:47:02;0.50;55.10
22633;DHT22;11483;55.828;37.488;2023-04-15T02:49:30;0.50;55.40
22633;DHT22;11483;55.828;37.488;2023-04-15T02:51:57;0.50;55.10
22633;DHT22;11483;55.828;37.488;2023-04-15T02:54:25;0.50;55.30
22633;DHT22;11483;55.828;37.488;2023-04-15T02:56:54;0.50;55.10
22633;DHT22;11483;55.828;37.488;2023-04-15T02:59:21;0.60;55.20
22633;DHT22;11483;55.828;37.488;2023-04-15T03:01:48;0.50;55.30
22633;DHT22;11483;55.828;37.488;2023-04-15T03:04:15;0.50;55.20
22633;DHT22;11483;55.828;37.488;2023-04-15T03:06:42;0.60;55.10
22633;DHT22;11483;55.828;37.488;2023-04-15T03:09:09;0.60;55.10
22633;DHT22;11483;55.828;37.488;2023-04-15T03:11:36;0.50;55.30
22633;DHT22;11483;55.828;37.488;2023-04-15T03:14:06;0.60;55.30
22633;DHT22;11483;55.828;37.488;2023-04-15T03:16:33;0.60;55.10
22633;DHT22;11483;55.828;37.488;2023-04-15T03:19:00;0.60;55.00
22633;DHT22;11483;55.828;37.488;2023-04-15T03:21:27;0.70;55.20
22633;DHT22;11483;55.828;37.488;2023-04-15T03:23:54;0.80;55.10
22633;DHT22;11483;55.828;37.488;2023-04-15T03:26:28;0.70;55.10
22633;DHT22;11483;55.828;37.488;2023-04-15T03:28:55;0.70;54.90
22633;DHT22;11483;55.828;37.488;2023-04-15T03:31:22;0.80;55.10
22633;DHT22;11483;55.828;37.488;2023-04-15T03:33:49;0.80;55.20
22633;DHT22;11483;55.828;37.488;2023-04-15T03:36:16;0.90;55.00
22633;DHT22;11483;55.828;37.488;2023-04-15T03:38:43;0.90;55.20
22633;DHT22;11483;55.828;37.488;2023-04-15T03:41:10;0.90;54.90
22633;DHT22;11483;55.828;37.488;2023-04-15T03:43:37;0.90;54.80
22633;DHT22;11483;55.828;37.488;2023-04-15T03:46:04;0.90;54.80
22633;DHT22;11483;55.828;37.488;2023-04-15T03:48:31;1.00;54.80
22633;DHT22;11483;55.828;37.488;2023-04-15T03:50:58;1.00;54.80
22633;DHT22;11483;55.828;37.488;2023-04-15T03:53:25;1.00;54.60
22633;DHT22;11483;55.828;37.488;2023-04-15T03:55:52;1.10;54.60
22633;DHT22;11483;55.828;37.488;2023-04-15T03:58:19;1.20;54.50
22633;DHT22;11483;55.828;37.488;2023-04-15T04:00:46;1.20;54.20
22633;DHT22;11483;55.828;37.488;2023-04-15T04:03:13;1.20;54.10
22633;DHT22;11483;55.828;37.488;2023-04-15T04:05:40;1.30;54.10
22633;DHT22;11483;55.828;37.488;2023-04-15T04:08:07;1.30;54.10
22633;DHT22;11483;55.828;37.488;2023-04-15T04:10:34;1.40;53.90
22633;DHT22;11483;55.828;37.488;2023-04-15T04:13:01;1.40;53.90
22633;DHT22;11483;55.828;37.488;2023-04-15T04:15:28;1.50;54.00
22633;DHT22;11483;55.828;37.488;2023-04-15T04:17:55;1.50;53.90
22633;DHT22;11483;55.828;37.488;2023-04-15T04:20:22;1.60;53.70
22633;DHT22;11483;55.828;37.488;2023-04-15T04:22:49;1.70;53.70
22633;DHT22;11483;55.828;37.488;2023-04-15T04:25:16;1.60;53.50
22633;DHT22;11483;55.828;37.488;2023-04-15T04:27:43;1.70;53.40
22633;DHT22;11483;55.828;37.488;2023-04-15T04:30:11;1.80;53.50
22633;DHT22;11483;55.828;37.488;2023-04-15T04:32:38;1.90;53.20
22633;DHT22;11483;55.828;37.488;2023-04-15T04:35:05;2.00;53.30
22633;DHT22;11483;55.828;37.488;2023-04-15T04:37:32;2.10;53.00
22633;DHT22;11483;55.828;37.488;2023-04-15T04:39:59;2.10;52.80
22633;DHT22;11483;55.828;37.488;2023-04-15T04:42:26;2.20;52.70
22633;DHT22;11483;55.828;37.488;2023-04-15T04:44:53;2.20;52.60
22633;DHT22;11483;55.828;37.488;2023-04-15T04:47:20;2.20;52.30
22633;DHT22;11483;55.828;37.488;2023-04-15T04:49:47;2.20;52.30
22633;DHT22;11483;55.828;37.488;2023-04-15T04:52:14;2.20;52.10
22633;DHT22;11483;55.828;37.488;2023-04-15T04:54:41;2.20;52.10
22633;DHT22;11483;55.828;37.488;2023-04-15T04:57:08;2.30;51.90
22633;DHT22;11483;55.828;37.488;2023-04-15T04:59:35;2.30;51.90
22633;DHT22;11483;55.828;37.488;2023-04-15T05:02:02;2.30;51.80
22633;DHT22;11483;55.828;37.488;2023-04-15T05:04:29;2.50;52.00
22633;DHT22;11483;55.828;37.488;2023-04-15T05:06:57;2.50;51.70
22633;DHT22;11483;55.828;37.488;2023-04-15T05:09:25;2.60;51.70
22633;DHT22;11483;55.828;37.488;2023-04-15T05:11:52;2.60;51.40
22633;DHT22;11483;55.828;37.488;2023-04-15T05:14:19;2.70;51.10
22633;DHT22;11483;55.828;37.488;2023-04-15T05:16:46;2.60;51.10
22633;DHT22;11483;55.828;37.488;2023-04-15T05:19:13;2.60;50.60
22633;DHT22;11483;55.828;37.488;2023-04-15T05:21:40;2.60;50.40
22633;DHT22;11483;55.828;37.488;2023-04-15T05:24:07;2.60;50.50
22633;DHT22;11483;55.828;37.488;2023-04-15T05:26:34;2.80;50.70
22633;DHT22;11483;55.828;37.488;2023-04-15T05:29:01;2.80;50.70
22633;DHT22;11483;55.828;37.488;2023-04-15T05:31:28;2.80;51.20
22633;DHT22;11483;55.828;37.488;2023-04-15T05:33:55;2.80;50.50
22633;DHT22;11483;55.828;37.488;2023-04-15T05:36:22;2.90;50.10
22633;DHT22;11483;55.828;37.488;2023-04-15T05:38:49;3.00;50.10
22633;DHT22;11483;55.828;37.488;2023-04-15T05:41:16;3.10;50.60
22633;DHT22;11483;55.828;37.488;2023-04-15T05:43:43;3.20;50.20
22633;DHT22;11483;55.828;37.488;2023-04-15T05:46:10;3.30;50.10
22633;DHT22;11483;55.828;37.488;2023-04-15T05:48:37;3.30;49.90
22633;DHT22;11483;55.828;37.488;2023-04-15T05:51:04;3.40;50.00
22633;DHT22;11483;55.828;37.488;2023-04-15T05:53:31;3.50;49.60
22633;DHT22;11483;55.828;37.488;2023-04-15T05:55:58;3.70;49.80
22633;DHT22;11483;55.828;37.488;2023-04-15T05:58:26;3.70;49.50
22633;DHT22;11483;55.828;37.488;2023-04-15T06:00:53;3.80;49.30
22633;DHT22;11483;55.828;37.488;2023-04-15T06:03:21;3.80;49.00
22633;DHT22;11483;55.828;37.488;2023-04-15T06:05:48;4.00;48.80
22633;DHT22;11483;55.828;37.488;2023-04-15T06:08:15;4.10;48.60
22633;DHT22;11483;55.828;37.488;2023-04-15T06:10:43;4.20;48.70
22633;DHT22;11483;55.828;37.488;2023-04-15T06:13:10;4.30;49.00
22633;DHT22;11483;55.828;37.488;2023-04-15T06:15:37;4.40;48.90
22633;DHT22;11483;55.828;37.488;2023-04-15T06:18:04;4.40;48.60
22633;DHT22;11483;55.828;37.488;2023-04-15T06:20:31;4.50;48.50
22633;DHT22;11483;55.828;37.488;2023-04-15T06:22:59;4.50;48.20
22633;DHT22;11483;55.828;37.488;2023-04-15T06:25:26;4.60;48.00
22633;DHT22;11483;55.828;37.488;2023-04-15T06:27:53;4.70;47.70
22633;DHT22;11483;55.828;37.488;2023-04-15T06:30:20;4.80;47.90
22633;DHT22;11483;55.828;37.488;2023-04-15T06:32:47;5.00;47.60
22633;DHT22;11483;55.828;37.488;2023-04-15T06:35:14;5.00;47.40
22633;DHT22;11483;55.828;37.488;2023-04-15T06:37:41;5.00;46.80
22633;DHT22;11483;55.828;37.488;2023-04-15T06:40:09;5.10;47.30
22633;DHT22;11483;55.828;37.488;2023-04-15T06:42:36;5.20;47.30
22633;DHT22;11483;55.828;37.488;2023-04-15T06:45:04;5.20;47.00
22633;DHT22;11483;55.828;37.488;2023-04-15T06:47:32;5.10;46.90
22633;DHT22;11483;55.828;37.488;2023-04-15T06:49:59;5.10;46.70
22633;DHT22;11483;55.828;37.488;2023-04-15T06:52:26;5.20;46.90
22633;DHT22;11483;55.828;37.488;2023-04-15T06:54:53;5.30;47.00
22633;DHT22;11483;55.828;37.488;2023-04-15T06:57:21;5.40;46.90
22633;DHT22;11483;55.828;37.488;2023-04-15T06:59:48;5.50;46.90
22633;DHT22;11483;55.828;37.488;2023-04-15T07:02:16;5.60;46.30
22633;DHT22;11483;55.828;37.488;2023-04-15T07:04:44;5.40;45.80
22633;DHT22;11483;55.828;37.488;2023-04-15T07:07:11;5.50;45.70
22633;DHT22;11483;55.828;37.488;2023-04-15T07:09:39;5.70;45.70
22633;DHT22;11483;55.828;37.488;2023-04-15T07:12:06;5.70;45.20
22633;DHT22;11483;55.828;37.488;2023-04-15T07:14:33;6.00;45.40
22633;DHT22;11483;55.828;37.488;2023-04-15T07:17:00;6.00;44.80
22633;DHT22;11483;55.828;37.488;2023-04-15T07:19:27;6.20;44.80
22633;DHT22;11483;55.828;37.488;2023-04-15T07:21:55;6.30;44.80
22633;DHT22;11483;55.828;37.488;2023-04-15T07:24:22;6.40;44.30
22633;DHT22;11483;55.828;37.488;2023-04-15T07:26:55;6.40;43.70
22633;DHT22;11483;55.828;37.488;2023-04-15T07:29:24;6.50;43.80
22633;DHT22;11483;55.828;37.488;2023-04-15T07:31:52;6.60;43.90
22633;DHT22;11483;55.828;37.488;2023-04-15T07:34:20;6.70;43.60
22633;DHT22;11483;55.828;37.488;2023-04-15T07:36:47;6.90;43.60
22633;DHT22;11483;55.828;37.488;2023-04-15T07:39:17;7.00;43.10
22633;DHT22;11483;55.828;37.488;2023-04-15T07:41:44;7.00;42.60
22633;DHT22;11483;55.828;37.488;2023-04-15T07:44:12;6.90;42.30
22633;DHT22;11483;55.828;37.488;2023-04-15T07:46:39;7.00;42.00
22633;DHT22;11483;55.828;37.488;2023-04-15T07:49:06;6.90;42.50
22633;DHT22;11483;55.828;37.488;2023-04-15T07:51:34;7.00;42.80
22633;DHT22;11483;55.828;37.488;2023-04-15T07:54:01;7.30;43.20
22633;DHT22;11483;55.828;37.488;2023-04-15T07:56:29;7.20;42.00
22633;DHT22;11483;55.828;37.488;2023-04-15T07:58:56;7.50;42.30
22633;DHT22;11483;55.828;37.488;2023-04-15T08:01:23;7.50;41.70
22633;DHT22;11483;55.828;37.488;2023-04-15T08:03:50;7.60;41.40
22633;DHT22;11483;55.828;37.488;2023-04-15T08:06:18;7.50;40.70
22633;DHT22;11483;55.828;37.488;2023-04-15T08:08:45;7.50;40.70
22633;DHT22;11483;55.828;37.488;2023-04-15T08:11:12;7.90;41.20
22633;DHT22;11483;55.828;37.488;2023-04-15T08:13:40;8.30;41.50
22633;DHT22;11483;55.828;37.488;2023-04-15T08:16:19;8.40;41.10
22633;DHT22;11483;55.828;37.488;2023-04-15T08:18:48;8.40;40.50
22633;DHT22;11483;55.828;37.488;2023-04-15T08:21:17;8.70;40.80
22633;DHT22;11483;55.828;37.488;2023-04-15T08:23:46;8.90;40.10
22633;DHT22;11483;55.828;37.488;2023-04-15T08:26:13;9.20;39.90
22633;DHT22;11483;55.828;37.488;2023-04-15T08:28:42;9.90;39.70
22633;DHT22;11483;55.828;37.488;2023-04-15T08:31:10;10.80;38.40
22633;DHT22;11483;55.828;37.488;2023-04-15T08:33:37;12.50;37.40
22633;DHT22;11483;55.828;37.488;2023-04-15T08:36:05;14.10;35.70
22633;DHT22;11483;55.828;37.488;2023-04-15T08:38:33;15.40;34.70
22633;DHT22;11483;55.828;37.488;2023-04-15T08:41:10;17.30;34.70
22633;DHT22;11483;55.828;37.488;2023-04-15T08:43:51;18.90;32.30
22633;DHT22;11483;55.828;37.488;2023-04-15T08:46:20;19.50;31.20
22633;DHT22;11483;55.828;37.488;2023-04-15T08:48:47;19.20;29.60
22633;DHT22;11483;55.828;37.488;2023-04-15T08:51:16;19.20;29.40
22633;DHT22;11483;55.828;37.488;2023-04-15T08:53:43;19.80;30.00
22633;DHT22;11483;55.828;37.488;2023-04-15T08:56:14;19.50;29.60
22633;DHT22;11483;55.828;37.488;2023-04-15T08:58:45;19.10;29.50
22633;DHT22;11483;55.828;37.488;2023-04-15T09:01:13;18.80;29.50
22633;DHT22;11483;55.828;37.488;2023-04-15T09:03:41;18.20;29.40
22633;DHT22;11483;55.828;37.488;2023-04-15T09:06:09;17.80;29.70
22633;DHT22;11483;55.828;37.488;2023-04-15T09:08:36;17.60;29.80
22633;DHT22;11483;55.828;37.488;2023-04-15T09:11:03;17.50;29.70
22633;DHT22;11483;55.828;37.488;2023-04-15T09:13:30;17.30;29.30
22633;DHT22;11483;55.828;37.488;2023-04-15T09:15:58;17.10;29.40
22633;DHT22;11483;55.828;37.488;2023-04-15T09:18:31;16.80;29.60
22633;DHT22;11483;55.828;37.488;2023-04-15T09:21:06;16.60;30.00
22633;DHT22;11483;55.828;37.488;2023-04-15T09:23:34;16.60;30.00
22633;DHT22;11483;55.828;37.488;2023-04-15T09:26:02;16.60;29.80
22633;DHT22;11483;55.828;37.488;2023-04-15T09:28:29;16.00;29.90
22633;DHT22;11483;55.828;37.488;2023-04-15T09:30:57;15.60;30.30
22633;DHT22;11483;55.828;37.488;2023-04-15T09:33:24;15.60;30.60
22633;DHT22;11483;55.828;37.488;2023-04-15T09:35:59;16.10;31.10
22633;DHT22;11483;55.828;37.488;2023-04-15T09:38:27;16.40;31.00
22633;DHT22;11483;55.828;37.488;2023-04-15T09:40:54;16.00;30.00
22633;DHT22;11483;55.828;37.488;2023-04-15T09:43:21;15.90;30.00
22633;DHT22;11483;55.828;37.488;2023-04-15T09:45:49;15.40;30.00
22633;DHT22;11483;55.828;37.488;2023-04-15T09:50:44;15.20;30.70
22633;DHT22;11483;55.828;37.488;2023-04-15T09:53:14;15.40;30.70
22633;DHT22;11483;55.828;37.488;2023-04-15T09:55:48;15.80;30.50
22633;DHT22;11483;55.828;37.488;2023-04-15T09:58:22;15.90;29.80
22633;DHT22;11483;55.828;37.488;2023-04-15T10:00:50;15.70;29.60
22633;DHT22;11483;55.828;37.488;2023-04-15T10:03:18;15.50;29.60
22633;DHT22;11483;55.828;37.488;2023-04-15T10:05:50;15.70;29.50
22633;DHT22;11483;55.828;37.488;2023-04-15T10:08:18;15.70;29.70
22633;DHT22;11483;55.828;37.488;2023-04-15T10:10:47;15.90;29.90
22633;DHT22;11483;55.828;37.488;2023-04-15T10:13:18;16.00;29.90
22633;DHT22;11483;55.828;37.488;2023-04-15T10:15:50;16.10;30.30
22633;DHT22;11483;55.828;37.488;2023-04-15T10:18:18;16.70;30.60
22633;DHT22;11483;55.828;37.488;2023-04-15T10:20:45;17.10;30.00
22633;DHT22;11483;55.828;37.488;2023-04-15T10:23:14;17.00;29.70
22633;DHT22;11483;55.828;37.488;2023-04-15T10:25:41;17.10;29.20
22633;DHT22;11483;55.828;37.488;2023-04-15T10:28:08;16.90;28.70
22633;DHT22;11483;55.828;37.488;2023-04-15T10:30:35;16.70;29.30
22633;DHT22;11483;55.828;37.488;2023-04-15T10:33:02;16.80;29.70
22633;DHT22;11483;55.828;37.488;2023-04-15T10:35:31;17.40;30.30
22633;DHT22;11483;55.828;37.488;2023-04-15T10:38:00;17.90;29.90
22633;DHT22;11483;55.828;37.488;2023-04-15T10:40:28;18.30;29.60
22633;DHT22;11483;55.828;37.488;2023-04-15T10:42:59;18.30;28.80
22633;DHT22;11483;55.828;37.488;2023-04-15T10:45:35;18.10;28.30
22633;DHT22;11483;55.828;37.488;2023-04-15T10:48:05;17.90;28.40
22633;DHT22;11483;55.828;37.488;2023-04-15T10:50:33;17.90;28.60
22633;DHT22;11483;55.828;37.488;2023-04-15T10:53:03;18.10;28.90
22633;DHT22;11483;55.828;37.488;2023-04-15T10:55:32;18.40;29.00
22633;DHT22;11483;55.828;37.488;2023-04-15T10:58:01;18.30;28.50
22633;DHT22;11483;55.828;37.488;2023-04-15T11:00:30;18.20;28.40
22633;DHT22;11483;55.828;37.488;2023-04-15T11:03:08;18.10;28.60
22633;DHT22;11483;55.828;37.488;2023-04-15T11:08:09;19.10;29.00
22633;DHT22;11483;55.828;37.488;2023-04-15T11:15:44;19.40;29.00
22633;DHT22;11483;55.828;37.488;2023-04-15T11:20:53;18.90;28.00
22633;DHT22;11483;55.828;37.488;2023-04-15T11:23:38;18.40;27.80
22633;DHT22;11483;55.828;37.488;2023-04-15T11:26:08;18.00;28.20
22633;DHT22;11483;55.828;37.488;2023-04-15T11:28:36;18.20;28.70
22633;DHT22;11483;55.828;37.488;2023-04-15T11:31:12;18.50;28.70
22633;DHT22;11483;55.828;37.488;2023-04-15T11:33:58;18.30;28.40
22633;DHT22;11483;55.828;37.488;2023-04-15T11:36:28;18.20;28.40
22633;DHT22;11483;55.828;37.488;2023-04-15T11:38:57;18.30;28.60
22633;DHT22;11483;55.828;37.488;2023-04-15T11:41:25;18.40;28.70
22633;DHT22;11483;55.828;37.488;2023-04-15T11:43:52;18.40;28.70
22633;DHT22;11483;55.828;37.488;2023-04-15T11:46:20;18.40;28.90
22633;DHT22;11483;55.828;37.488;2023-04-15T11:48:48;18.40;28.80
22633;DHT22;11483;55.828;37.488;2023-04-15T11:51:15;18.30;28.80
22633;DHT22;11483;55.828;37.488;2023-04-15T11:53:46;17.70;29.00
22633;DHT22;11483;55.828;37.488;2023-04-15T11:58:43;18.00;29.10
22633;DHT22;11483;55.828;37.488;2023-04-15T12:01:11;18.10;28.70
22633;DHT22;11483;55.828;37.488;2023-04-15T12:03:41;17.80;28.50
22633;DHT22;11483;55.828;37.488;2023-04-15T12:06:15;17.70;28.50
22633;DHT22;11483;55.828;37.488;2023-04-15T12:09:14;17.40;28.80
22633;DHT22;11483;55.828;37.488;2023-04-15T12:11:49;17.40;28.90
22633;DHT22;11483;55.828;37.488;2023-04-15T12:14:32;17.40;29.00
22633;DHT22;11483;55.828;37.488;2023-04-15T12:21:56;16.50;29.60
22633;DHT22;11483;55.828;37.488;2023-04-15T12:24:23;16.60;29.80
22633;DHT22;11483;55.828;37.488;2023-04-15T12:26:50;17.00;29.90
22633;DHT22;11483;55.828;37.488;2023-04-15T12:29:16;17.10;29.70
22633;DHT22;11483;55.828;37.488;2023-04-15T12:31:52;17.40;29.80
22633;DHT22;11483;55.828;37.488;2023-04-15T12:34:52;17.20;29.40
22633;DHT22;11483;55.828;37.488;2023-04-15T12:37:10;17.00;29.50
22633;DHT22;11483;55.828;37.488;2023-04-15T12:39:38;17.10;30.00
22633;DHT22;11483;55.828;37.488;2023-04-15T12:42:04;17.00;29.90
22633;DHT22;11483;55.828;37.488;2023-04-15T12:44:30;16.80;30.00
22633;DHT22;11483;55.828;37.488;2023-04-15T12:46:57;16.40;30.10
22633;DHT22;11483;55.828;37.488;2023-04-15T12:49:24;16.40;30.10
22633;DHT22;11483;55.828;37.488;2023-04-15T12:51:51;16.60;30.10
22633;DHT22;11483;55.828;37.488;2023-04-15T12:54:17;16.80;30.00
22633;DHT22;11483;55.828;37.488;2023-04-15T12:56:43;17.10;30.00
22633;DHT22;11483;55.828;37.488;2023-04-15T12:59:10;17.60;29.90
22633;DHT22;11483;55.828;37.488;2023-04-15T13:01:37;17.80;29.70
22633;DHT22;11483;55.828;37.488;2023-04-15T13:04:03;18.00;29.70
22633;DHT22;11483;55.828;37.488;2023-04-15T13:06:30;18.00;29.60
22633;DHT22;11483;55.828;37.488;2023-04-15T13:08:59;17.50;29.70
22633;DHT22;11483;55.828;37.488;2023-04-15T13:11:26;17.20;29.90
22633;DHT22;11483;55.828;37.488;2023-04-15T13:13:54;17.00;30.00
22633;DHT22;11483;55.828;37.488;2023-04-15T13:16:20;16.80;30.30
22633;DHT22;11483;55.828;37.488;2023-04-15T13:18:47;16.70;30.30
22633;DHT22;11483;55.828;37.488;2023-04-15T13:21:13;16.60;30.50
22633;DHT22;11483;55.828;37.488;2023-04-15T13:23:42;16.40;30.50
22633;DHT22;11483;55.828;37.488;2023-04-15T13:26:08;16.50;30.40
22633;DHT22;11483;55.828;37.488;2023-04-15T13:28:34;16.60;30.50
22633;DHT22;11483;55.828;37.488;2023-04-15T13:31:00;16.70;30.40
22633;DHT22;11483;55.828;37.488;2023-04-15T13:33:26;16.90;30.50
22633;DHT22;11483;55.828;37.488;2023-04-15T13:35:52;17.00;30.30
22633;DHT22;11483;55.828;37.488;2023-04-15T13:38:18;16.90;30.40
22633;DHT22;11483;55.828;37.488;2023-04-15T13:40:44;17.00;30.00
22633;DHT22;11483;55.828;37.488;2023-04-15T13:43:10;17.00;30.30
22633;DHT22;11483;55.828;37.488;2023-04-15T13:45:36;17.00;30.10
22633;DHT22;11483;55.828;37.488;2023-04-15T13:48:03;17.10;30.20
22633;DHT22;11483;55.828;37.488;2023-04-15T13:50:29;17.20;30.30
22633;DHT22;11483;55.828;37.488;2023-04-15T13:52:54;17.30;30.00
22633;DHT22;11483;55.828;37.488;2023-04-15T13:55:20;17.40;30.10
22633;DHT22;11483;55.828;37.488;2023-04-15T13:57:46;17.20;30.20
22633;DHT22;11483;55.828;37.488;2023-04-15T14:00:13;16.90;30.10
22633;DHT22;11483;55.828;37.488;2023-04-15T14:02:39;17.00;30.40
22633;DHT22;11483;55.828;37.488;2023-04-15T14:05:07;17.20;30.00
22633;DHT22;11483;55.828;37.488;2023-04-15T14:07:33;17.30;30.20
22633;DHT22;11483;55.828;37.488;2023-04-15T14:09:59;17.40;30.20
22633;DHT22;11483;55.828;37.488;2023-04-15T14:12:25;17.50;30.00
22633;DHT22;11483;55.828;37.488;2023-04-15T14:14:50;17.70;30.20
22633;DHT22;11483;55.828;37.488;2023-04-15T14:17:16;17.70;30.40
22633;DHT22;11483;55.828;37.488;2023-04-15T14:19:42;17.70;30.20
22633;DHT22;11483;55.828;37.488;2023-04-15T14:22:08;17.90;30.30
22633;DHT22;11483;55.828;37.488;2023-04-15T14:24:34;17.90;30.10
22633;DHT22;11483;55.828;37.488;2023-04-15T14:27:00;17.80;30.00
22633;DHT22;11483;55.828;37.488;2023-04-15T14:29:27;17.90;30.00
22633;DHT22;11483;55.828;37.488;2023-04-15T14:31:53;18.00;30.00
22633;DHT22;11483;55.828;37.488;2023-04-15T14:34:19;18.10;29.90
22633;DHT22;11483;55.828;37.488;2023-04-15T14:36:47;18.00;29.80
22633;DHT22;11483;55.828;37.488;2023-04-15T14:39:13;18.00;29.90
22633;DHT22;11483;55.828;37.488;2023-04-15T14:41:39;17.90;29.80
22633;DHT22;11483;55.828;37.488;2023-04-15T14:44:05;17.90;30.00
22633;DHT22;11483;55.828;37.488;2023-04-15T14:46:33;18.10;30.00
22633;DHT22;11483;55.828;37.488;2023-04-15T14:48:59;18.10;29.90
22633;DHT22;11483;55.828;37.488;2023-04-15T14:51:25;18.20;30.00
22633;DHT22;11483;55.828;37.488;2023-04-15T14:53:51;18.30;29.90
22633;DHT22;11483;55.828;37.488;2023-04-15T14:56:17;18.30;30.00
22633;DHT22;11483;55.828;37.488;2023-04-15T14:58:43;18.20;30.50
22633;DHT22;11483;55.828;37.488;2023-04-15T15:01:09;17.90;30.00
22633;DHT22;11483;55.828;37.488;2023-04-15T15:03:35;17.50;30.00
22633;DHT22;11483;55.828;37.488;2023-04-15T15:06:01;17.00;30.20
22633;DHT22;11483;55.828;37.488;2023-04-15T15:08:27;16.80;30.80
22633;DHT22;11483;55.828;37.488;2023-04-15T15:10:53;16.60;31.00
22633;DHT22;11483;55.828;37.488;2023-04-15T15:13:18;16.30;31.20
22633;DHT22;11483;55.828;37.488;2023-04-15T15:15:44;16.20;31.50
22633;DHT22;11483;55.828;37.488;2023-04-15T15:18:12;16.10;31.50
22633;DHT22;11483;55.828;37.488;2023-04-15T15:20:38;16.00;31.60
22633;DHT22;11483;55.828;37.488;2023-04-15T15:23:04;16.00;31.50
22633;DHT22;11483;55.828;37.488;2023-04-15T15:25:30;15.90;31.50
22633;DHT22;11483;55.828;37.488;2023-04-15T15:27:56;15.90;31.60
22633;DHT22;11483;55.828;37.488;2023-04-15T15:30:22;15.70;31.60
22633;DHT22;11483;55.828;37.488;2023-04-15T15:32:48;15.70;31.80
22633;DHT22;11483;55.828;37.488;2023-04-15T15:35:14;15.60;31.60
22633;DHT22;11483;55.828;37.488;2023-04-15T15:37:40;15.70;31.90
22633;DHT22;11483;55.828;37.488;2023-04-15T15:40:07;16.30;31.80
22633;DHT22;11483;55.828;37.488;2023-04-15T15:42:33;15.90;31.60
22633;DHT22;11483;55.828;37.488;2023-04-15T15:44:59;16.00;31.40
22633;DHT22;11483;55.828;37.488;2023-04-15T15:47:25;16.10;31.60